Time;durP1;ratioP1;P1;durP2;ratioP2;P2;SDS_P1;SDS_P2;PMS_P1;PMS_P2;Temp;Humidity;BMP_temperature;BMP_pressure;BME280_temperature;BME280_humidity;BME280_pressure;Samples;Min_cycle;Max_cycle;Signal;HPM_P1;HPM_P2
2023/10/17 00:00:38;;;;;;;8.37;4.50;;;;;;;7.95;60.68;95074.38;5108233;28;20190;-43
2023/10/17 00:03:06;;;;;;;7.23;4.30;;;;;;;7.95;61.19;95079.47;5090741;28;20254;-50
2023/10/17 00:05:34;;;;;;;6.30;4.50;;;;;;;7.95;61.26;95082.03;5091243;28;20258;-43
2023/10/17 00:08:05;;;;;;;6.53;3.90;;;;;;;7.95;61.25;95081.22;5090608;28;20201;-43
2023/10/17 00:10:41;;;;;;;7.97;4.43;;;;;;;7.94;61.20;95072.72;5091156;28;20197;-43
2023/10/17 00:13:25;;;;;;;5.90;4.57;;;;;;;7.94;61.42;95067.63;5091076;28;20216;-42
2023/10/17 00:15:53;;;;;;;5.17;4.03;;;;;;;7.91;61.52;95067.06;5090838;28;20584;-43
2023/10/17 00:18:24;;;;;;;6.47;4.50;;;;;;;7.90;61.41;95060.34;5091073;28;20217;-43
2023/10/17 00:20:53;;;;;;;8.27;4.73;;;;;;;7.91;61.57;95069.63;5093499;28;20576;-43
2023/10/17 00:23:22;;;;;;;5.00;4.10;;;;;;;7.95;61.72;95064.19;5093851;28;20190;-44
2023/10/17 00:25:50;;;;;;;7.87;4.87;;;;;;;7.94;61.36;95074.47;5099766;28;20593;-42
2023/10/17 00:28:20;;;;;;;7.50;3.87;;;;;;;7.90;61.74;95057.78;5095841;28;20518;-43
2023/10/17 00:30:49;;;;;;;7.27;4.73;;;;;;;7.91;61.33;95059.44;5092602;28;20189;-43
2023/10/17 00:33:20;;;;;;;5.60;3.93;;;;;;;7.88;61.35;95052.00;5111397;28;20245;-52
2023/10/17 00:35:48;;;;;;;4.23;3.83;;;;;;;7.88;61.16;95054.56;5110724;28;20251;-44
2023/10/17 00:38:17;;;;;;;6.40;4.10;;;;;;;7.87;61.08;95052.94;5110647;28;20200;-43
2023/10/17 00:40:49;;;;;;;9.63;3.93;;;;;;;7.83;61.08;95046.44;5110944;28;20621;-44
2023/10/17 00:43:16;;;;;;;3.93;3.53;;;;;;;7.63;61.02;95002.06;5111054;28;20188;-43
2023/10/17 00:45:45;;;;;;;6.33;4.00;;;;;;;7.89;61.00;95035.81;5097768;28;20219;-43
2023/10/17 00:48:18;;;;;;;5.70;3.93;;;;;;;7.89;60.90;95039.16;5089885;28;20700;-42
2023/10/17 00:50:48;;;;;;;5.30;4.40;;;;;;;7.84;61.11;95040.44;5098025;28;20189;-43
2023/10/17 00:53:17;;;;;;;5.10;4.27;;;;;;;7.79;61.44;95043.31;5098994;28;20315;-43
2023/10/17 00:55:50;;;;;;;13.30;4.20;;;;;;;7.82;61.60;95043.09;5090249;28;20243;-43
2023/10/17 00:58:18;;;;;;;6.83;4.50;;;;;;;7.80;61.61;95042.38;5092214;28;20277;-43
2023/10/17 01:00:49;;;;;;;7.27;4.20;;;;;;;7.67;61.83;95031.47;5110595;28;20591;-42
2023/10/17 01:03:16;;;;;;;7.33;4.03;;;;;;;7.62;61.88;95025.91;5091351;28;20277;-44
2023/10/17 01:05:57;;;;;;;8.37;4.17;;;;;;;7.73;62.34;95041.22;5090315;28;20221;-42
2023/10/17 01:08:37;;;;;;;13.70;4.43;;;;;;;7.65;62.44;95039.22;5102910;28;20225;-42
2023/10/17 01:11:09;;;;;;;5.27;4.20;;;;;;;7.68;62.48;95033.91;5110682;28;20768;-43
2023/10/17 01:13:38;;;;;;;5.50;3.80;;;;;;;7.66;62.38;95047.69;5104918;28;20612;-43
2023/10/17 01:16:07;;;;;;;6.03;4.10;;;;;;;7.64;62.59;95044.41;5090623;28;20192;-43
2023/10/17 01:18:35;;;;;;;6.57;3.93;;;;;;;7.62;62.34;95036.91;5089244;28;20260;-42
2023/10/17 01:21:04;;;;;;;5.00;4.00;;;;;;;7.62;62.12;95044.53;5089640;28;20185;-42
2023/10/17 01:23:32;;;;;;;4.03;3.63;;;;;;;7.55;62.30;95056.06;5089868;28;20246;-43
2023/10/17 01:26:05;;;;;;;7.83;4.20;;;;;;;7.53;62.05;95052.84;5089591;28;20196;-42
2023/10/17 01:28:32;;;;;;;5.73;3.93;;;;;;;7.47;62.22;95046.47;5097362;28;20668;-43
2023/10/17 01:31:01;;;;;;;7.20;4.37;;;;;;;7.46;62.42;95049.91;5109666;28;20196;-43
2023/10/17 01:33:29;;;;;;;6.10;3.87;;;;;;;7.47;62.65;95043.91;5109856;28;20648;-44
2023/10/17 01:35:58;;;;;;;3.70;3.40;;;;;;;7.46;62.57;95049.09;5109903;28;20185;-44
2023/10/17 01:38:26;;;;;;;5.57;3.93;;;;;;;7.41;62.66;95046.09;5109699;28;20220;-44
2023/10/17 01:40:54;;;;;;;5.70;3.80;;;;;;;7.44;62.77;95035.69;5110155;28;20215;-43
2023/10/17 01:43:22;;;;;;;5.47;3.50;;;;;;;7.39;62.72;95037.75;5100335;28;20205;-43
2023/10/17 01:45:50;;;;;;;8.00;3.87;;;;;;;7.17;62.72;95010.50;5089905;28;20178;-44
2023/10/17 01:48:21;;;;;;;3.50;3.20;;;;;;;7.35;62.94;95036.34;5089234;28;20748;-43
2023/10/17 01:50:48;;;;;;;5.07;3.30;;;;;;;7.39;62.97;95046.19;5100331;28;20616;-43
2023/10/17 01:53:15;;;;;;;5.63;3.33;;;;;;;7.37;62.76;95042.13;5110108;28;20640;-43
2023/10/17 01:55:48;;;;;;;3.80;3.47;;;;;;;7.42;62.82;95045.16;5109570;28;20267;-43
2023/10/17 01:58:18;;;;;;;4.67;3.20;;;;;;;7.35;62.68;95041.44;5109473;28;20219;-43
2023/10/17 02:00:46;;;;;;;3.90;3.50;;;;;;;7.34;63.00;95043.19;5109197;28;20700;-42
2023/10/17 02:03:16;;;;;;;7.20;3.50;;;;;;;7.33;63.09;95049.16;5109071;28;20231;-43
2023/10/17 02:05:44;;;;;;;4.70;4.07;;;;;;;7.27;63.02;95031.81;5109453;28;20296;-42
2023/10/17 02:08:11;;;;;;;5.17;3.80;;;;;;;7.26;63.26;95025.09;5109729;28;20548;-42
2023/10/17 02:10:38;;;;;;;4.33;3.93;;;;;;;7.28;63.63;95024.06;5109038;28;20201;-43
2023/10/17 02:13:06;;;;;;;7.87;4.43;;;;;;;7.29;63.71;95029.94;5109519;28;20259;-42
2023/10/17 02:15:34;;;;;;;9.63;4.30;;;;;;;7.33;64.05;95036.44;5109401;28;20189;-43
2023/10/17 02:18:12;;;;;;;7.63;4.00;;;;;;;7.33;64.54;95025.47;5095152;28;20243;-43
2023/10/17 02:20:45;;;;;;;4.53;3.87;;;;;;;7.29;64.83;95023.13;5091851;28;20276;-42
2023/10/17 02:23:19;;;;;;;10.77;4.13;;;;;;;7.22;64.95;95037.22;5109705;28;20246;-42
2023/10/17 02:25:45;;;;;;;8.40;4.10;;;;;;;7.17;65.33;95025.75;5102405;28;20664;-44
2023/10/17 02:28:12;;;;;;;5.87;4.50;;;;;;;7.11;65.22;95014.25;5088974;28;20186;-43
2023/10/17 02:30:39;;;;;;;6.20;4.23;;;;;;;7.16;65.33;95024.13;5091349;28;20178;-43
2023/10/17 02:33:17;;;;;;;7.33;4.63;;;;;;;7.14;65.66;95016.59;5092624;28;20221;-43
2023/10/17 02:35:53;;;;;;;8.67;4.30;;;;;;;7.19;65.85;95023.91;5092804;28;20193;-43
2023/10/17 02:38:20;;;;;;;7.73;4.27;;;;;;;7.16;66.03;95024.13;5093343;28;20192;-43
2023/10/17 02:40:51;;;;;;;5.07;4.43;;;;;;;6.95;65.87;94994.22;5112902;28;20268;-43
2023/10/17 02:43:18;;;;;;;6.17;4.20;;;;;;;7.18;66.13;95035.00;5092619;28;20198;-43
2023/10/17 02:45:44;;;;;;;7.07;4.37;;;;;;;7.22;66.24;95034.69;5093853;28;20193;-43
2023/10/17 02:48:23;;;;;;;10.53;4.33;;;;;;;7.21;66.31;95030.53;5112010;28;20217;-42
2023/10/17 02:51:00;;;;;;;6.83;4.30;;;;;;;7.22;66.42;95016.06;5113050;28;20189;-44
2023/10/17 02:53:27;;;;;;;10.07;4.00;;;;;;;7.26;66.27;95028.44;5093673;28;20205;-43
2023/10/17 02:55:56;;;;;;;4.90;4.37;;;;;;;7.19;66.26;95001.81;5092845;28;20186;-44
2023/10/17 02:58:22;;;;;;;7.80;4.50;;;;;;;7.08;66.43;94990.78;5092545;28;20194;-42
2023/10/17 03:00:51;;;;;;;6.40;4.33;;;;;;;7.33;66.50;95026.28;5092038;28;20185;-42
2023/10/17 03:03:19;;;;;;;5.33;4.07;;;;;;;7.34;66.62;95027.91;5092714;28;20662;-44
2023/10/17 03:05:50;;;;;;;11.13;3.83;;;;;;;7.36;66.46;95030.34;5092678;28;20207;-42
2023/10/17 03:08:18;;;;;;;7.67;4.23;;;;;;;7.40;66.19;95034.28;5092537;28;20193;-42
2023/10/17 03:10:47;;;;;;;7.50;4.17;;;;;;;7.42;66.43;95045.16;5092387;28;20690;-42
2023/10/17 03:13:23;;;;;;;4.93;4.17;;;;;;;7.22;66.31;95004.16;5092534;28;20213;-43
2023/10/17 03:15:54;;;;;;;9.30;4.53;;;;;;;7.34;66.42;95011.81;5092720;28;20730;-44
2023/10/17 03:18:22;;;;;;;6.50;4.80;;;;;;;7.53;66.27;95038.38;5092749;28;20189;-42
2023/10/17 03:20:51;;;;;;;6.17;4.53;;;;;;;7.55;66.42;95020.44;5092037;28;20189;-43
2023/10/17 03:23:19;;;;;;;13.43;4.50;;;;;;;7.60;66.52;95018.41;5092877;28;20213;-44
2023/10/17 03:25:47;;;;;;;6.70;4.50;;;;;;;7.61;66.63;95016.66;5093259;28;20719;-44
2023/10/17 03:28:15;;;;;;;6.53;4.27;;;;;;;7.67;66.24;95021.28;5094036;28;20194;-43
2023/10/17 03:30:42;;;;;;;11.23;4.67;;;;;;;7.69;66.35;95027.09;5098290;28;20192;-44
2023/10/17 03:33:13;;;;;;;5.67;4.47;;;;;;;7.61;66.41;95012.38;5113377;28;20699;-44
2023/10/17 03:36:03;;;;;;;10.77;4.80;;;;;;;7.73;66.11;95031.03;5113632;28;20200;-44
2023/10/17 03:38:32;;;;;;;6.80;4.67;;;;;;;7.77;66.21;95030.72;5114050;28;20193;-45
2023/10/17 03:41:03;;;;;;;6.50;4.23;;;;;;;7.83;66.03;95031.19;5093167;28;20185;-44
2023/10/17 03:43:38;;;;;;;5.83;4.17;;;;;;;7.85;65.93;95024.22;5091979;28;20243;-43
2023/10/17 03:46:05;;;;;;;9.83;4.07;;;;;;;7.87;65.60;95027.47;5104575;28;20614;-43
2023/10/17 03:48:36;;;;;;;6.03;3.97;;;;;;;7.94;65.71;95028.63;5091340;28;20701;-44
2023/10/17 03:51:11;;;;;;;8.43;4.80;;;;;;;7.84;65.51;95010.69;5091312;28;20246;-48
2023/10/17 03:53:44;;;;;;;5.80;4.33;;;;;;;7.94;65.35;95013.34;5093943;28;20209;-44
2023/10/17 03:56:19;;;;;;;7.33;4.40;;;;;;;7.89;65.25;95006.06;5111932;28;20188;-43
2023/10/17 03:58:53;;;;;;;4.57;4.00;;;;;;;7.96;65.22;95022.50;5111810;28;20261;-43
2023/10/17 04:01:23;;;;;;;8.57;4.20;;;;;;;7.98;65.01;95018.09;5103372;28;20184;-44
2023/10/17 04:03:53;;;;;;;9.90;4.83;;;;;;;8.00;65.18;95023.09;5094227;28;20181;-43
2023/10/17 04:06:34;;;;;;;5.83;4.20;;;;;;;8.02;65.38;95026.34;5105876;28;20272;-42
2023/10/17 04:09:16;;;;;;;9.03;4.40;;;;;;;8.00;65.30;95023.09;5101764;28;20177;-42
2023/10/17 04:11:46;;;;;;;11.30;4.33;;;;;;;8.01;65.03;95025.53;5097860;28;20193;-43
2023/10/17 04:14:13;;;;;;;5.50;4.40;;;;;;;7.93;64.99;95010.00;5090529;28;20217;-42
2023/10/17 04:16:43;;;;;;;15.23;4.90;;;;;;;8.05;64.83;95018.47;5091046;28;20657;-45
2023/10/17 04:19:16;;;;;;;9.07;4.17;;;;;;;8.02;64.89;95009.31;5091932;28;20231;-43
2023/10/17 04:21:51;;;;;;;7.10;4.23;;;;;;;8.01;65.06;95015.34;5091719;28;20194;-43
2023/10/17 04:24:26;;;;;;;10.47;5.20;;;;;;;8.07;65.18;95011.50;5097276;28;20667;-43
2023/10/17 04:27:05;;;;;;;6.67;4.10;;;;;;;8.11;65.08;95014.66;5110974;28;20193;-44
2023/10/17 04:29:32;;;;;;;5.40;4.07;;;;;;;8.08;65.24;95025.91;5111997;28;20185;-44
2023/10/17 04:32:01;;;;;;;7.80;4.33;;;;;;;8.12;65.46;95019.66;5095561;28;20259;-41
2023/10/17 04:34:28;;;;;;;9.07;4.10;;;;;;;8.13;65.55;95018.72;5105670;28;20621;-42
2023/10/17 04:36:56;;;;;;;11.87;4.37;;;;;;;8.17;65.55;95012.47;5110677;28;20189;-42
2023/10/17 04:39:35;;;;;;;5.90;4.50;;;;;;;8.16;65.60;95012.56;5102604;28;20665;-43
2023/10/17 04:42:11;;;;;;;14.37;5.13;;;;;;;8.19;66.11;95002.16;5092570;28;20185;-43
2023/10/17 04:44:39;;;;;;;8.10;4.37;;;;;;;8.22;66.00;95012.94;5110026;28;20200;-44
2023/10/17 04:49:54;;;;;;;11.37;4.20;;;;;;;8.24;66.09;95007.72;5032551;28;20183;-43
2023/10/17 04:52:29;;;;;;;13.57;4.10;;;;;;;8.22;66.34;95012.13;5037036;28;20196;-43
2023/10/17 04:55:01;;;;;;;11.97;4.80;;;;;;;8.25;66.26;95004.25;5032973;28;20283;-42
2023/10/17 04:57:54;;;;;;;11.13;4.27;;;;;;;8.24;65.92;95013.59;5027112;28;20242;-42
2023/10/17 05:00:43;;;;;;;7.33;4.27;;;;;;;8.12;65.83;94993.34;5027308;28;20648;-43
2023/10/17 05:03:14;;;;;;;6.30;4.87;;;;;;;8.21;65.91;94992.66;5027361;28;20191;-42
2023/10/17 05:06:00;;;;;;;7.10;4.47;;;;;;;8.36;66.04;95011.88;5026711;28;20226;-43
2023/10/17 05:08:49;;;;;;;8.63;4.63;;;;;;;8.42;66.15;95020.81;5026786;28;20223;-44
2023/10/17 06:17:21;;;;;;;6.87;3.50;;;;;;;11.27;67.05;95042.72;5010896;28;20258;-43
2023/10/17 06:19:48;;;;;;;10.37;3.40;;;;;;;11.70;65.83;95043.25;5010283;28;20198;-43
2023/10/17 06:30:34;;;;;;;4.27;3.43;;;;;;;12.78;61.75;95056.53;5049962;28;20203;-45
2023/10/17 06:33:17;;;;;;;5.90;3.43;;;;;;;12.84;60.97;95059.47;5049569;28;20230;-43
2023/10/17 06:35:52;;;;;;;2.97;2.77;;;;;;;12.75;61.04;95056.00;5050236;28;20285;-42
2023/10/17 06:38:19;;;;;;;6.27;3.30;;;;;;;12.82;60.87;95044.19;5049804;28;20248;-44
2023/10/17 06:40:46;;;;;;;6.73;2.70;;;;;;;12.93;60.65;95056.84;5050175;28;20189;-43
2023/10/17 06:43:16;;;;;;;6.10;3.10;;;;;;;12.93;60.62;95050.91;5048826;28;20199;-43
2023/10/17 06:45:54;;;;;;;5.67;2.97;;;;;;;12.97;60.49;95063.31;5048361;28;20245;-43
2023/10/17 06:48:31;;;;;;;4.93;3.27;;;;;;;12.97;60.69;95063.31;5049265;28;20799;-43
2023/10/17 06:53:47;;;;;;;6.07;3.07;;;;;;;12.71;61.18;95059.81;5049746;28;20254;-41
2023/10/17 06:56:14;;;;;;;4.43;3.00;;;;;;;12.64;61.31;95062.09;5049518;28;20187;-44
2023/10/17 06:58:41;;;;;;;5.73;3.07;;;;;;;12.65;61.35;95050.91;5049670;28;20187;-44
2023/10/17 07:01:19;;;;;;;5.23;2.90;;;;;;;12.67;61.41;95055.91;5048945;28;20588;-43
2023/10/17 07:03:46;;;;;;;2.87;2.67;;;;;;;12.60;61.59;95052.28;5049359;28;20202;-42
2023/10/17 07:06:13;;;;;;;5.47;3.30;;;;;;;12.46;61.64;95044.09;5058397;28;20284;-44
2023/10/17 07:08:41;;;;;;;4.03;2.80;;;;;;;12.41;62.22;95048.03;5129665;27;20195;-44
2023/10/17 07:11:24;;;;;;;6.73;3.13;;;;;;;12.45;62.20;95042.47;5091824;28;20660;-41
2023/10/17 07:13:57;;;;;;;3.40;3.10;;;;;;;12.44;61.95;95029.81;5092397;28;20213;-44
2023/10/17 07:16:26;;;;;;;4.67;2.80;;;;;;;12.45;61.55;95033.97;5091941;28;20182;-43
2023/10/17 07:18:53;;;;;;;7.00;3.10;;;;;;;12.47;61.80;95026.94;5091854;28;20208;-43
2023/10/17 07:21:23;;;;;;;6.37;3.20;;;;;;;12.52;61.71;95033.28;5091349;28;20201;-43
2023/10/17 07:23:53;;;;;;;5.07;3.03;;;;;;;12.60;61.64;95035.13;5092055;28;20220;-41
2023/10/17 07:26:38;;;;;;;7.03;3.03;;;;;;;12.73;61.37;95029.66;5091661;28;20182;-42
2023/10/17 07:29:06;;;;;;;5.60;3.30;;;;;;;12.76;61.21;95034.50;5094783;28;20653;-43
2023/10/17 07:31:36;;;;;;;5.83;3.73;;;;;;;12.75;61.33;95026.00;5091580;28;20706;-42
2023/10/17 07:34:16;;;;;;;6.83;3.43;;;;;;;12.88;60.97;95027.44;5097878;28;20636;-42
2023/10/17 07:36:47;;;;;;;3.73;2.90;;;;;;;12.95;60.44;95031.03;5111531;28;20563;-43
2023/10/17 07:39:24;;;;;;;2.70;2.50;;;;;;;13.02;60.33;95025.19;5111845;28;20197;-42
2023/10/17 07:41:55;;;;;;;9.77;3.40;;;;;;;13.10;60.21;95027.03;5111795;28;20283;-44
2023/10/17 07:44:22;;;;;;;4.53;3.07;;;;;;;13.03;59.65;95000.31;5111885;28;20676;-42
2023/10/17 07:47:04;;;;;;;11.10;3.77;;;;;;;13.28;59.80;95022.75;5111713;28;20564;-42
2023/10/17 07:49:31;;;;;;;4.93;2.77;;;;;;;13.34;59.13;95018.78;5092282;28;20291;-43
2023/10/17 07:51:58;;;;;;;6.30;3.13;;;;;;;13.41;58.81;95021.59;5091445;28;20198;-43
2023/10/17 07:54:28;;;;;;;5.40;3.20;;;;;;;13.43;58.66;95022.25;5102833;28;20228;-43
2023/10/17 07:56:58;;;;;;;8.27;2.93;;;;;;;13.44;58.63;95023.88;5112019;27;20212;-43
2023/10/17 07:59:31;;;;;;;4.17;3.03;;;;;;;13.51;58.42;95012.88;5110667;28;20687;-43
2023/10/17 08:02:13;;;;;;;8.47;3.07;;;;;;;13.50;58.19;95020.69;5108295;28;20189;-43
2023/10/17 08:04:43;;;;;;;5.47;2.87;;;;;;;13.44;58.73;95016.97;5109422;28;20280;-44
2023/10/17 08:07:13;;;;;;;4.70;3.17;;;;;;;13.53;58.36;95023.78;5110155;28;20279;-43
2023/10/17 08:09:47;;;;;;;4.10;2.60;;;;;;;13.54;57.78;95017.69;5110706;28;20196;-44
2023/10/17 08:12:15;;;;;;;9.83;3.43;;;;;;;13.58;57.62;95017.41;5110347;28;20279;-43
2023/10/17 08:14:42;;;;;;;3.27;2.80;;;;;;;13.53;56.72;95023.78;5108703;28;20217;-43
2023/10/17 08:17:11;;;;;;;6.40;2.90;;;;;;;13.47;56.66;95019.25;5106655;28;20177;-42
2023/10/17 08:20:00;;;;;;;12.60;3.10;;;;;;;13.51;56.77;95018.00;5111912;27;20250;-43
2023/10/17 08:22:26;;;;;;;7.67;3.43;;;;;;;13.58;56.52;95019.97;5108370;28;20266;-43
2023/10/17 08:24:55;;;;;;;2.83;2.57;;;;;;;13.30;56.26;94972.06;5110007;28;20189;-43
2023/10/17 08:27:45;;;;;;;2.80;2.60;;;;;;;13.57;56.13;95026.88;5105387;28;20197;-42
2023/10/17 08:30:23;;;;;;;10.20;2.70;;;;;;;13.49;55.78;95026.78;5109714;28;20268;-41
2023/10/17 08:32:55;;;;;;;4.23;2.53;;;;;;;13.47;55.84;95018.41;5105455;28;20308;-44
2023/10/17 08:35:26;;;;;;;2.20;2.00;;;;;;;13.45;55.62;95010.88;5109792;28;20228;-43
2023/10/17 08:37:55;;;;;;;5.97;2.40;;;;;;;13.37;55.91;95005.66;5110168;28;20250;-43
2023/10/17 08:40:32;;;;;;;5.27;2.60;;;;;;;13.39;55.95;95001.19;5106264;28;20257;-41
2023/10/17 08:43:01;;;;;;;5.57;2.27;;;;;;;13.39;56.18;95008.09;5109034;28;20203;-42
2023/10/17 08:45:36;;;;;;;2.50;2.20;;;;;;;13.35;56.34;95017.03;5101104;28;20204;-43
2023/10/17 08:48:06;;;;;;;5.03;2.60;;;;;;;13.25;56.31;94999.13;5090157;28;20225;-43
2023/10/17 08:50:37;;;;;;;5.43;3.07;;;;;;;13.12;56.36;94980.66;5108834;28;20185;-43
2023/10/17 08:53:07;;;;;;;8.90;3.23;;;;;;;13.43;56.47;95019.69;5105404;28;20280;-44
2023/10/17 08:55:34;;;;;;;7.90;2.80;;;;;;;13.49;56.04;95026.78;5104915;28;20215;-42
2023/10/17 08:58:00;;;;;;;2.77;2.30;;;;;;;13.48;56.11;95023.44;5109830;28;20196;-42
2023/10/17 09:03:10;;;;;;;2.77;2.53;;;;;;;13.51;56.34;95018.00;5110019;28;20193;-42
2023/10/17 09:05:58;;;;;;;8.10;2.47;;;;;;;13.53;56.42;95013.50;5099950;28;20576;-42
2023/10/17 09:08:42;;;;;;;3.17;2.30;;;;;;;13.59;56.19;95011.28;5104150;28;20189;-42
2023/10/17 09:11:09;;;;;;;3.90;2.30;;;;;;;13.62;56.14;95001.53;5111860;28;20189;-51
2023/10/17 09:16:34;;;;;;;3.20;2.40;;;;;;;13.73;55.83;94992.75;5032475;28;20571;-44
2023/10/17 09:19:10;;;;;;;3.10;2.47;;;;;;;13.77;55.44;94987.22;5024677;28;20264;-43
2023/10/17 09:21:41;;;;;;;4.73;2.90;;;;;;;13.79;55.81;94987.84;5026553;28;20302;-44
2023/10/17 09:24:29;;;;;;;2.50;2.30;;;;;;;13.87;55.36;94976.81;5022612;28;20203;-43
2023/10/17 09:26:58;;;;;;;3.20;2.50;;;;;;;13.95;55.26;94986.34;5027096;28;20200;-44
2023/10/17 09:29:27;;;;;;;6.83;3.03;;;;;;;14.00;55.07;94979.00;5027102;28;20675;-44
2023/10/17 09:31:55;;;;;;;3.63;2.90;;;;;;;13.99;54.84;94973.03;5026990;28;20190;-43
2023/10/17 09:34:26;;;;;;;3.37;2.60;;;;;;;14.03;55.09;94971.78;5026968;28;20319;-42
2023/10/17 09:37:03;;;;;;;4.67;2.67;;;;;;;14.02;54.49;94967.56;5026742;28;20231;-42
2023/10/17 09:39:33;;;;;;;5.67;2.70;;;;;;;14.04;54.67;94962.31;5022581;28;20188;-43
2023/10/17 09:41:59;;;;;;;2.60;2.40;;;;;;;14.11;54.58;94967.63;5018750;28;20183;-48
2023/10/17 09:44:26;;;;;;;4.73;2.63;;;;;;;14.13;54.39;94961.38;5044124;28;20179;-44
2023/10/17 09:46:57;;;;;;;3.43;2.90;;;;;;;14.10;54.57;94958.31;5046672;28;20199;-43
2023/10/17 09:49:33;;;;;;;2.50;2.30;;;;;;;14.06;54.47;94947.50;5033407;28;20191;-42
2023/10/17 09:52:00;;;;;;;2.30;2.10;;;;;;;14.11;54.51;94947.06;5036285;28;20194;-42
2023/10/17 09:54:34;;;;;;;5.93;2.70;;;;;;;14.12;54.86;94949.50;5104352;28;20208;-44
2023/10/17 09:57:02;;;;;;;3.00;2.30;;;;;;;14.10;54.60;94942.88;5102184;28;20632;-43
2023/10/17 09:59:38;;;;;;;3.57;2.70;;;;;;;14.16;54.54;94942.25;5109772;28;20185;-42
2023/10/17 10:02:08;;;;;;;3.63;2.60;;;;;;;14.24;54.58;94944.88;5109158;28;20245;-44
2023/10/17 10:04:38;;;;;;;4.37;2.77;;;;;;;14.32;54.24;94947.47;5107764;28;20237;-44
2023/10/17 10:07:21;;;;;;;5.30;2.60;;;;;;;14.35;54.26;94943.81;5099037;28;20185;-42
2023/10/17 10:09:48;;;;;;;3.40;2.60;;;;;;;14.27;53.92;94940.22;5109664;28;20208;-42
2023/10/17 10:12:15;;;;;;;2.83;2.33;;;;;;;14.20;54.12;94946.13;5109418;28;20193;-43
2023/10/17 10:14:43;;;;;;;3.20;2.43;;;;;;;14.16;54.43;94931.97;5109584;28;20680;-45
2023/10/17 10:17:14;;;;;;;3.43;2.37;;;;;;;14.19;54.41;94937.63;5110211;28;20197;-43
2023/10/17 10:20:02;;;;;;;3.10;2.60;;;;;;;14.09;54.12;94929.22;5109767;28;20189;-43
2023/10/17 10:22:51;;;;;;;4.00;2.80;;;;;;;14.22;54.21;94931.38;5110203;28;20243;-43
2023/10/17 10:25:19;;;;;;;6.60;2.37;;;;;;;14.29;53.79;94930.59;5101895;28;20411;-45
2023/10/17 10:27:46;;;;;;;4.07;2.67;;;;;;;14.29;53.49;94935.75;5109673;28;20597;-44
2023/10/17 10:30:43;;;;;;;3.70;2.37;;;;;;;14.34;53.56;94927.56;5110371;28;20539;-42
2023/10/17 10:33:11;;;;;;;5.17;2.80;;;;;;;14.38;53.35;94930.59;5109642;28;20185;-45
2023/10/17 10:35:43;;;;;;;3.90;2.73;;;;;;;14.42;53.38;94929.34;5109058;28;20407;-45
2023/10/17 10:38:11;;;;;;;7.60;2.60;;;;;;;14.41;53.59;94920.81;5109926;28;20181;-44
2023/10/17 10:40:40;;;;;;;5.40;2.93;;;;;;;14.48;53.40;94928.72;5110256;28;20293;-45
2023/10/17 10:43:11;;;;;;;5.37;2.90;;;;;;;14.49;53.07;94925.22;5109759;28;20275;-49
2023/10/17 10:45:42;;;;;;;4.43;2.53;;;;;;;14.49;52.73;94927.81;5112043;28;20207;-44
2023/10/17 10:48:14;;;;;;;3.60;2.50;;;;;;;14.52;52.89;94928.31;5121234;28;20229;-43
2023/10/17 10:50:43;;;;;;;5.70;2.80;;;;;;;14.64;52.59;94928.03;5115613;28;20545;-44
2023/10/17 10:53:25;;;;;;;9.90;2.67;;;;;;;14.65;52.97;94930.44;5112652;28;20639;-44
2023/10/17 10:55:55;;;;;;;5.83;2.87;;;;;;;14.66;52.70;94939.75;5112617;28;20254;-44
2023/10/17 10:58:22;;;;;;;5.97;2.77;;;;;;;14.69;52.60;94918.84;5112525;28;20280;-44
2023/10/17 11:00:49;;;;;;;3.07;2.77;;;;;;;14.76;52.59;94913.88;5111648;28;20201;-44
2023/10/17 11:03:17;;;;;;;3.90;2.63;;;;;;;14.83;52.10;94914.88;5111393;28;20201;-45
2023/10/17 11:05:57;;;;;;;4.37;2.30;;;;;;;14.74;52.40;94908.88;5112497;28;20631;-43
2023/10/17 11:08:24;;;;;;;3.47;2.80;;;;;;;14.68;52.53;94911.28;5112926;28;20215;-44
2023/10/17 11:10:51;;;;;;;4.97;2.60;;;;;;;14.63;52.53;94895.50;5112338;28;20193;-43
2023/10/17 11:13:19;;;;;;;3.77;2.93;;;;;;;14.71;52.49;94898.91;5109671;28;20191;-44
2023/10/17 11:15:47;;;;;;;2.57;2.30;;;;;;;14.75;52.32;94892.47;5110883;28;20246;-43
2023/10/17 11:18:15;;;;;;;2.97;2.53;;;;;;;14.76;52.35;94888.13;5107348;28;20280;-43
2023/10/17 11:20:43;;;;;;;6.93;3.10;;;;;;;14.77;52.32;94890.56;5108600;28;20217;-44
2023/10/17 11:23:13;;;;;;;8.53;2.70;;;;;;;14.78;52.20;94871.56;5112395;28;20513;-44
2023/10/17 11:25:46;;;;;;;5.83;2.70;;;;;;;14.80;52.19;94869.63;5100493;27;20219;-42
2023/10/17 11:28:16;;;;;;;4.17;2.83;;;;;;;14.86;51.97;94869.97;5114414;27;20192;-44
2023/10/17 11:30:45;;;;;;;2.70;2.50;;;;;;;14.61;51.96;94823.59;5108467;28;20217;-47
2023/10/17 11:33:15;;;;;;;6.93;2.50;;;;;;;14.75;52.09;94859.00;5112658;28;20744;-43
2023/10/17 11:35:49;;;;;;;3.40;2.53;;;;;;;14.70;52.73;94856.09;5112440;28;20227;-46
2023/10/17 11:38:34;;;;;;;3.03;2.70;;;;;;;14.62;53.20;94845.78;5112334;28;20193;-43
2023/10/17 11:41:02;;;;;;;6.00;2.90;;;;;;;14.60;53.81;94847.72;5110641;28;20234;-43
2023/10/17 11:43:34;;;;;;;3.30;2.73;;;;;;;14.53;53.75;94844.19;5109631;28;20199;-42
2023/10/17 11:46:02;;;;;;;4.67;3.10;;;;;;;14.38;54.00;94841.38;5112347;28;20185;-44
2023/10/17 11:48:31;;;;;;;5.13;2.97;;;;;;;14.35;54.36;94835.75;5112028;28;20225;-45
2023/10/17 11:51:06;;;;;;;5.63;2.90;;;;;;;14.35;54.51;94833.97;5112566;28;20219;-44
2023/10/17 11:53:34;;;;;;;3.53;2.93;;;;;;;14.21;54.70;94816.59;5108145;27;20254;-43
2023/10/17 11:56:02;;;;;;;5.70;3.27;;;;;;;14.26;54.84;94837.50;5113230;27;20292;-43
2023/10/17 11:58:30;;;;;;;4.00;2.63;;;;;;;14.24;54.82;94826.53;5111513;28;20290;-43
2023/10/17 12:00:57;;;;;;;5.07;3.10;;;;;;;14.26;54.64;94834.91;5111433;28;20528;-42
2023/10/17 12:03:26;;;;;;;6.13;3.30;;;;;;;14.21;54.88;94843.09;5111179;28;20287;-45
2023/10/17 12:05:54;;;;;;;3.97;2.93;;;;;;;14.14;54.96;94843.88;5111381;28;20197;-43
2023/10/17 12:08:29;;;;;;;6.30;3.90;;;;;;;14.13;55.04;94839.69;5111538;28;20173;-42
2023/10/17 12:10:57;;;;;;;4.30;3.00;;;;;;;14.03;54.88;94843.22;5111098;27;20273;-43
2023/10/17 12:13:26;;;;;;;7.10;3.57;;;;;;;13.99;55.18;94838.53;5111189;28;20193;-42
2023/10/17 12:15:56;;;;;;;10.13;3.57;;;;;;;13.93;55.24;94828.84;5110529;28;20341;-42
2023/10/17 12:18:25;;;;;;;9.73;3.37;;;;;;;13.90;55.46;94829.16;5111125;28;20568;-42
2023/10/17 12:20:55;;;;;;;5.53;3.33;;;;;;;13.89;55.45;94819.84;5110986;28;20197;-41
2023/10/17 12:23:29;;;;;;;4.20;2.90;;;;;;;13.77;55.65;94793.59;5110896;28;20279;-42
2023/10/17 12:25:58;;;;;;;4.27;3.03;;;;;;;13.93;55.91;94821.94;5105788;28;20636;-43
2023/10/17 12:28:26;;;;;;;5.20;3.03;;;;;;;13.86;55.75;94823.53;5111044;28;20267;-43
2023/10/17 12:30:53;;;;;;;5.23;3.00;;;;;;;13.85;55.98;94821.09;5110795;28;20192;-43
2023/10/17 12:33:23;;;;;;;5.07;2.90;;;;;;;13.79;56.09;94819.97;5111427;28;20605;-43
2023/10/17 12:35:50;;;;;;;5.53;3.10;;;;;;;13.74;56.51;94817.84;5110510;28;20228;-42
2023/10/17 12:38:25;;;;;;;3.07;2.63;;;;;;;13.70;56.64;94823.47;5111143;28;20193;-43
2023/10/17 12:40:53;;;;;;;3.70;3.10;;;;;;;13.72;56.61;94817.19;5108760;28;20180;-44
2023/10/17 12:43:21;;;;;;;3.43;2.87;;;;;;;13.68;56.43;94815.88;5110598;28;20189;-43
2023/10/17 12:45:49;;;;;;;4.17;2.87;;;;;;;13.73;56.25;94818.81;5109921;28;20213;-44
2023/10/17 12:48:16;;;;;;;4.53;2.67;;;;;;;13.71;56.93;94820.72;5110567;28;20231;-43
2023/10/17 12:50:44;;;;;;;3.80;2.90;;;;;;;13.74;56.71;94823.00;5102712;28;20189;-43
2023/10/17 12:53:12;;;;;;;3.93;2.83;;;;;;;13.66;56.67;94799.03;5115158;27;20199;-43
2023/10/17 12:55:39;;;;;;;3.57;2.87;;;;;;;13.78;56.69;94815.78;5111045;28;20232;-43
2023/10/17 12:58:07;;;;;;;3.83;2.50;;;;;;;13.79;56.98;94819.97;5110407;28;20659;-42
2023/10/17 13:00:35;;;;;;;4.47;3.27;;;;;;;13.78;56.99;94813.22;5110434;28;20200;-43
2023/10/17 13:03:02;;;;;;;7.40;3.67;;;;;;;13.80;57.15;94826.72;5101818;28;20258;-43
2023/10/17 13:05:29;;;;;;;4.23;3.33;;;;;;;13.80;56.88;94817.22;5103681;28;20690;-44
2023/10/17 13:07:56;;;;;;;8.53;3.00;;;;;;;13.83;56.90;94817.91;5113126;27;20650;-42
2023/10/17 13:10:23;;;;;;;2.80;2.50;;;;;;;13.84;56.94;94815.16;5102846;28;20189;-42
2023/10/17 13:12:49;;;;;;;6.70;2.73;;;;;;;13.82;57.06;94814.53;5110813;28;20284;-42
2023/10/17 13:15:16;;;;;;;4.13;3.00;;;;;;;13.77;57.74;94811.59;5110035;28;20212;-42
2023/10/17 13:17:46;;;;;;;2.87;2.60;;;;;;;13.51;57.90;94778.22;5109607;28;20192;-43
2023/10/17 13:20:21;;;;;;;7.37;3.23;;;;;;;13.67;58.29;94811.72;5110474;28;20197;-43